Terminal Aerodrome Forecast
Issued by NWS

Current Version | Previous Version | Text Only | Print | Product List | Glossary On
Versions: 1 2 3 4 5 6 7 8 9 10 11 12 13 14
778
FTUS43 KTOP 251122
TAFMHK
TAF
KMHK 251122Z 2512/2612 36005KT P6SM FEW250
     FM252300 23003KT P6SM FEW070=

USA.gov is the U.S. government's official web portal to all federal, state and local government web resources and services.